sensor_id;sensor_type;location;lat;lon;timestamp;temperature;humidity
22337;DHT22;14992;50.844;4.418;2023-09-19T00:00:58;16.80;99.90
22337;DHT22;14992;50.844;4.418;2023-09-19T00:03:27;16.90;99.90
22337;DHT22;14992;50.844;4.418;2023-09-19T00:05:58;16.80;99.90
22337;DHT22;14992;50.844;4.418;2023-09-19T00:08:27;16.80;99.90
22337;DHT22;14992;50.844;4.418;2023-09-19T00:10:56;16.80;99.90
22337;DHT22;14992;50.844;4.418;2023-09-19T00:13:34;16.80;99.90
22337;DHT22;14992;50.844;4.418;2023-09-19T00:16:10;16.80;99.90
22337;DHT22;14992;50.844;4.418;2023-09-19T00:18:39;16.70;99.90
22337;DHT22;14992;50.844;4.418;2023-09-19T00:21:08;16.70;99.90
22337;DHT22;14992;50.844;4.418;2023-09-19T00:23:37;16.70;99.90
22337;DHT22;14992;50.844;4.418;2023-09-19T00:26:08;16.70;99.90
22337;DHT22;14992;50.844;4.418;2023-09-19T00:28:39;16.70;99.90
22337;DHT22;14992;50.844;4.418;2023-09-19T00:31:10;16.60;99.90
22337;DHT22;14992;50.844;4.418;2023-09-19T00:33:39;16.70;99.90
22337;DHT22;14992;50.844;4.418;2023-09-19T00:36:09;16.80;99.90
22337;DHT22;14992;50.844;4.418;2023-09-19T00:38:37;16.80;99.90
22337;DHT22;14992;50.844;4.418;2023-09-19T00:41:06;16.80;99.90
22337;DHT22;14992;50.844;4.418;2023-09-19T00:43:35;16.80;99.90
22337;DHT22;14992;50.844;4.418;2023-09-19T00:46:05;16.70;99.90
22337;DHT22;14992;50.844;4.418;2023-09-19T00:48:40;16.70;99.90
22337;DHT22;14992;50.844;4.418;2023-09-19T00:51:11;16.60;99.90
22337;DHT22;14992;50.844;4.418;2023-09-19T00:53:44;16.60;99.90
22337;DHT22;14992;50.844;4.418;2023-09-19T00:56:17;16.60;99.90
22337;DHT22;14992;50.844;4.418;2023-09-19T00:58:47;16.60;99.90
22337;DHT22;14992;50.844;4.418;2023-09-19T01:01:17;16.60;99.90
22337;DHT22;14992;50.844;4.418;2023-09-19T01:03:47;16.50;99.90
22337;DHT22;14992;50.844;4.418;2023-09-19T01:06:16;16.50;99.90
22337;DHT22;14992;50.844;4.418;2023-09-19T01:08:45;16.40;99.90
22337;DHT22;14992;50.844;4.418;2023-09-19T01:11:21;16.40;99.90
22337;DHT22;14992;50.844;4.418;2023-09-19T01:14:02;16.40;99.90
22337;DHT22;14992;50.844;4.418;2023-09-19T01:16:44;16.40;99.90
22337;DHT22;14992;50.844;4.418;2023-09-19T01:22:51;16.40;99.90
22337;DHT22;14992;50.844;4.418;2023-09-19T01:28:51;16.30;99.90
22337;DHT22;14992;50.844;4.418;2023-09-19T01:31:24;16.40;99.90
22337;DHT22;14992;50.844;4.418;2023-09-19T01:33:59;16.40;99.90
22337;DHT22;14992;50.844;4.418;2023-09-19T01:36:30;16.40;99.90
22337;DHT22;14992;50.844;4.418;2023-09-19T01:38:59;16.40;99.90
22337;DHT22;14992;50.844;4.418;2023-09-19T01:41:55;16.40;99.90
22337;DHT22;14992;50.844;4.418;2023-09-19T01:44:34;16.50;99.90
22337;DHT22;14992;50.844;4.418;2023-09-19T01:47:18;16.40;99.90
22337;DHT22;14992;50.844;4.418;2023-09-19T01:49:55;16.40;99.90
22337;DHT22;14992;50.844;4.418;2023-09-19T01:52:29;16.30;99.90
22337;DHT22;14992;50.844;4.418;2023-09-19T01:55:03;16.30;99.90
22337;DHT22;14992;50.844;4.418;2023-09-19T01:57:40;16.30;99.90
22337;DHT22;14992;50.844;4.418;2023-09-19T02:00:12;16.40;99.90
22337;DHT22;14992;50.844;4.418;2023-09-19T02:02:46;16.40;99.90
22337;DHT22;14992;50.844;4.418;2023-09-19T02:05:22;16.50;99.90
22337;DHT22;14992;50.844;4.418;2023-09-19T02:07:52;16.40;99.90
22337;DHT22;14992;50.844;4.418;2023-09-19T02:10:21;16.30;99.90
22337;DHT22;14992;50.844;4.418;2023-09-19T02:12:50;16.20;99.90
22337;DHT22;14992;50.844;4.418;2023-09-19T02:15:20;16.30;99.90
22337;DHT22;14992;50.844;4.418;2023-09-19T02:17:51;16.30;99.90
22337;DHT22;14992;50.844;4.418;2023-09-19T02:20:20;16.20;99.90
22337;DHT22;14992;50.844;4.418;2023-09-19T02:22:49;16.20;99.90
22337;DHT22;14992;50.844;4.418;2023-09-19T02:25:19;16.10;99.90
22337;DHT22;14992;50.844;4.418;2023-09-19T02:27:48;16.10;99.90
22337;DHT22;14992;50.844;4.418;2023-09-19T02:30:17;16.20;99.90
22337;DHT22;14992;50.844;4.418;2023-09-19T02:32:49;16.30;99.90
22337;DHT22;14992;50.844;4.418;2023-09-19T02:35:19;16.30;99.90
22337;DHT22;14992;50.844;4.418;2023-09-19T02:37:49;16.40;99.90
22337;DHT22;14992;50.844;4.418;2023-09-19T02:40:18;16.40;99.90
22337;DHT22;14992;50.844;4.418;2023-09-19T02:42:48;16.30;99.90
22337;DHT22;14992;50.844;4.418;2023-09-19T02:45:17;16.40;99.90
22337;DHT22;14992;50.844;4.418;2023-09-19T02:47:47;16.30;99.90
22337;DHT22;14992;50.844;4.418;2023-09-19T02:50:16;16.30;99.90
22337;DHT22;14992;50.844;4.418;2023-09-19T02:52:47;16.40;99.90
22337;DHT22;14992;50.844;4.418;2023-09-19T02:55:17;16.30;99.90
22337;DHT22;14992;50.844;4.418;2023-09-19T02:57:48;16.40;99.90
22337;DHT22;14992;50.844;4.418;2023-09-19T03:00:17;16.30;99.90
22337;DHT22;14992;50.844;4.418;2023-09-19T03:02:49;16.40;99.90
22337;DHT22;14992;50.844;4.418;2023-09-19T03:05:24;16.40;99.90
22337;DHT22;14992;50.844;4.418;2023-09-19T03:07:55;16.40;99.90
22337;DHT22;14992;50.844;4.418;2023-09-19T03:10:24;16.30;99.90
22337;DHT22;14992;50.844;4.418;2023-09-19T03:12:53;16.30;99.90
22337;DHT22;14992;50.844;4.418;2023-09-19T03:15:22;16.30;99.90
22337;DHT22;14992;50.844;4.418;2023-09-19T03:17:53;16.30;99.90
22337;DHT22;14992;50.844;4.418;2023-09-19T03:20:24;16.20;99.90
22337;DHT22;14992;50.844;4.418;2023-09-19T03:22:54;16.20;99.90
22337;DHT22;14992;50.844;4.418;2023-09-19T03:25:25;16.20;99.90
22337;DHT22;14992;50.844;4.418;2023-09-19T03:27:56;16.20;99.90
22337;DHT22;14992;50.844;4.418;2023-09-19T03:30:26;16.20;99.90
22337;DHT22;14992;50.844;4.418;2023-09-19T03:32:55;16.40;99.90
22337;DHT22;14992;50.844;4.418;2023-09-19T03:35:24;16.30;99.90
22337;DHT22;14992;50.844;4.418;2023-09-19T03:37:54;16.20;99.90
22337;DHT22;14992;50.844;4.418;2023-09-19T03:40:24;16.10;99.90
22337;DHT22;14992;50.844;4.418;2023-09-19T03:42:53;16.10;99.90
22337;DHT22;14992;50.844;4.418;2023-09-19T03:45:22;16.00;99.90
22337;DHT22;14992;50.844;4.418;2023-09-19T03:47:52;15.90;99.90
22337;DHT22;14992;50.844;4.418;2023-09-19T03:50:23;15.80;99.90
22337;DHT22;14992;50.844;4.418;2023-09-19T03:52:57;15.80;99.90
22337;DHT22;14992;50.844;4.418;2023-09-19T03:55:26;15.80;99.90
22337;DHT22;14992;50.844;4.418;2023-09-19T03:57:55;15.80;99.90
22337;DHT22;14992;50.844;4.418;2023-09-19T04:00:24;15.80;99.90
22337;DHT22;14992;50.844;4.418;2023-09-19T04:02:54;15.80;99.90
22337;DHT22;14992;50.844;4.418;2023-09-19T04:05:24;15.80;99.90
22337;DHT22;14992;50.844;4.418;2023-09-19T04:07:53;15.60;99.90
22337;DHT22;14992;50.844;4.418;2023-09-19T04:10:23;15.60;99.90
22337;DHT22;14992;50.844;4.418;2023-09-19T04:12:55;15.70;99.90
22337;DHT22;14992;50.844;4.418;2023-09-19T04:15:24;15.80;99.90
22337;DHT22;14992;50.844;4.418;2023-09-19T04:17:54;15.90;99.90
22337;DHT22;14992;50.844;4.418;2023-09-19T04:20:24;15.80;99.90
22337;DHT22;14992;50.844;4.418;2023-09-19T04:22:53;15.80;99.90
22337;DHT22;14992;50.844;4.418;2023-09-19T04:25:24;15.60;99.90
22337;DHT22;14992;50.844;4.418;2023-09-19T04:27:55;15.60;99.90
22337;DHT22;14992;50.844;4.418;2023-09-19T04:30:26;15.60;99.90
22337;DHT22;14992;50.844;4.418;2023-09-19T04:32:55;15.70;99.90
22337;DHT22;14992;50.844;4.418;2023-09-19T04:35:24;15.70;99.90
22337;DHT22;14992;50.844;4.418;2023-09-19T04:37:54;15.80;99.90
22337;DHT22;14992;50.844;4.418;2023-09-19T04:40:24;15.80;99.90
22337;DHT22;14992;50.844;4.418;2023-09-19T04:42:54;15.90;99.90
22337;DHT22;14992;50.844;4.418;2023-09-19T04:45:24;15.90;99.90
22337;DHT22;14992;50.844;4.418;2023-09-19T04:47:54;15.90;99.90
22337;DHT22;14992;50.844;4.418;2023-09-19T04:50:24;16.00;99.90
22337;DHT22;14992;50.844;4.418;2023-09-19T04:52:54;15.90;99.90
22337;DHT22;14992;50.844;4.418;2023-09-19T04:55:28;15.90;99.90
22337;DHT22;14992;50.844;4.418;2023-09-19T04:57:58;15.90;99.90
22337;DHT22;14992;50.844;4.418;2023-09-19T05:00:26;15.90;99.90
22337;DHT22;14992;50.844;4.418;2023-09-19T05:02:58;15.90;99.90
22337;DHT22;14992;50.844;4.418;2023-09-19T05:05:27;15.90;99.90
22337;DHT22;14992;50.844;4.418;2023-09-19T05:07:56;15.90;99.90
22337;DHT22;14992;50.844;4.418;2023-09-19T05:10:34;15.80;99.90
22337;DHT22;14992;50.844;4.418;2023-09-19T05:13:05;15.70;99.90
22337;DHT22;14992;50.844;4.418;2023-09-19T05:15:35;15.60;99.90
22337;DHT22;14992;50.844;4.418;2023-09-19T05:18:04;15.60;99.90
22337;DHT22;14992;50.844;4.418;2023-09-19T05:20:34;15.50;99.90
22337;DHT22;14992;50.844;4.418;2023-09-19T05:23:06;15.50;99.90
22337;DHT22;14992;50.844;4.418;2023-09-19T05:25:41;15.50;99.90
22337;DHT22;14992;50.844;4.418;2023-09-19T05:28:11;15.50;99.90
22337;DHT22;14992;50.844;4.418;2023-09-19T05:30:42;15.60;99.90
22337;DHT22;14992;50.844;4.418;2023-09-19T05:33:15;15.70;99.90
22337;DHT22;14992;50.844;4.418;2023-09-19T05:35:47;15.60;99.90
22337;DHT22;14992;50.844;4.418;2023-09-19T05:38:16;15.60;99.90
22337;DHT22;14992;50.844;4.418;2023-09-19T05:40:48;15.60;99.90
22337;DHT22;14992;50.844;4.418;2023-09-19T05:43:17;15.70;99.90
22337;DHT22;14992;50.844;4.418;2023-09-19T05:45:49;15.70;99.90
22337;DHT22;14992;50.844;4.418;2023-09-19T05:48:20;15.80;99.90
22337;DHT22;14992;50.844;4.418;2023-09-19T05:50:49;15.90;99.90
22337;DHT22;14992;50.844;4.418;2023-09-19T05:53:18;15.90;99.90
22337;DHT22;14992;50.844;4.418;2023-09-19T05:55:48;15.90;99.90
22337;DHT22;14992;50.844;4.418;2023-09-19T05:58:17;16.00;99.90
22337;DHT22;14992;50.844;4.418;2023-09-19T06:00:47;15.90;99.90
22337;DHT22;14992;50.844;4.418;2023-09-19T06:03:16;16.00;99.90
22337;DHT22;14992;50.844;4.418;2023-09-19T06:05:46;15.90;99.90
22337;DHT22;14992;50.844;4.418;2023-09-19T06:08:17;15.90;99.90
22337;DHT22;14992;50.844;4.418;2023-09-19T06:10:47;15.90;99.90
22337;DHT22;14992;50.844;4.418;2023-09-19T06:13:16;15.90;99.90
22337;DHT22;14992;50.844;4.418;2023-09-19T06:15:47;15.90;99.90
22337;DHT22;14992;50.844;4.418;2023-09-19T06:18:17;16.00;99.90
22337;DHT22;14992;50.844;4.418;2023-09-19T06:20:47;16.10;99.90
22337;DHT22;14992;50.844;4.418;2023-09-19T06:23:20;16.10;99.90
22337;DHT22;14992;50.844;4.418;2023-09-19T06:25:51;16.10;99.90
22337;DHT22;14992;50.844;4.418;2023-09-19T06:28:20;16.10;99.90
22337;DHT22;14992;50.844;4.418;2023-09-19T06:30:52;16.20;99.90
22337;DHT22;14992;50.844;4.418;2023-09-19T06:33:21;16.10;99.90
22337;DHT22;14992;50.844;4.418;2023-09-19T06:35:50;16.10;99.90
22337;DHT22;14992;50.844;4.418;2023-09-19T06:38:20;16.00;99.90
22337;DHT22;14992;50.844;4.418;2023-09-19T06:40:51;15.90;99.90
22337;DHT22;14992;50.844;4.418;2023-09-19T06:43:20;15.90;99.90
22337;DHT22;14992;50.844;4.418;2023-09-19T06:45:49;15.90;99.90
22337;DHT22;14992;50.844;4.418;2023-09-19T06:48:18;16.00;99.90
22337;DHT22;14992;50.844;4.418;2023-09-19T06:50:46;16.10;99.90
22337;DHT22;14992;50.844;4.418;2023-09-19T06:53:16;16.20;99.90
22337;DHT22;14992;50.844;4.418;2023-09-19T06:55:46;16.20;99.90
22337;DHT22;14992;50.844;4.418;2023-09-19T06:58:17;16.20;99.90
22337;DHT22;14992;50.844;4.418;2023-09-19T07:00:46;16.30;99.90
22337;DHT22;14992;50.844;4.418;2023-09-19T07:03:17;16.30;99.90
22337;DHT22;14992;50.844;4.418;2023-09-19T07:05:49;16.30;99.90
22337;DHT22;14992;50.844;4.418;2023-09-19T07:08:18;16.30;99.90
22337;DHT22;14992;50.844;4.418;2023-09-19T07:10:47;16.30;99.90
22337;DHT22;14992;50.844;4.418;2023-09-19T07:13:18;16.40;99.90
22337;DHT22;14992;50.844;4.418;2023-09-19T07:15:47;16.30;99.90
22337;DHT22;14992;50.844;4.418;2023-09-19T07:18:18;16.20;99.90
22337;DHT22;14992;50.844;4.418;2023-09-19T07:20:47;16.30;99.90
22337;DHT22;14992;50.844;4.418;2023-09-19T07:23:18;16.30;99.90
22337;DHT22;14992;50.844;4.418;2023-09-19T07:25:48;16.40;99.90
22337;DHT22;14992;50.844;4.418;2023-09-19T07:28:19;16.30;99.90
22337;DHT22;14992;50.844;4.418;2023-09-19T07:30:48;16.50;99.90
22337;DHT22;14992;50.844;4.418;2023-09-19T07:33:17;16.60;99.90
22337;DHT22;14992;50.844;4.418;2023-09-19T07:35:47;16.60;99.90
22337;DHT22;14992;50.844;4.418;2023-09-19T07:38:16;16.60;99.90
22337;DHT22;14992;50.844;4.418;2023-09-19T07:40:45;16.60;99.90
22337;DHT22;14992;50.844;4.418;2023-09-19T07:43:14;16.70;99.90
22337;DHT22;14992;50.844;4.418;2023-09-19T07:45:44;16.80;99.90
22337;DHT22;14992;50.844;4.418;2023-09-19T07:48:14;16.90;99.90
22337;DHT22;14992;50.844;4.418;2023-09-19T07:50:44;16.90;99.90
22337;DHT22;14992;50.844;4.418;2023-09-19T07:53:13;17.00;99.90
22337;DHT22;14992;50.844;4.418;2023-09-19T07:55:43;17.00;99.90
22337;DHT22;14992;50.844;4.418;2023-09-19T07:58:16;17.10;99.90
22337;DHT22;14992;50.844;4.418;2023-09-19T08:00:46;17.00;99.90
22337;DHT22;14992;50.844;4.418;2023-09-19T08:03:15;17.00;99.90
22337;DHT22;14992;50.844;4.418;2023-09-19T08:05:45;17.00;99.90
22337;DHT22;14992;50.844;4.418;2023-09-19T08:08:15;17.00;99.90
22337;DHT22;14992;50.844;4.418;2023-09-19T08:10:44;17.10;99.90
22337;DHT22;14992;50.844;4.418;2023-09-19T08:13:16;17.20;99.90
22337;DHT22;14992;50.844;4.418;2023-09-19T08:15:47;17.20;99.90
22337;DHT22;14992;50.844;4.418;2023-09-19T08:18:16;17.30;99.90
22337;DHT22;14992;50.844;4.418;2023-09-19T08:20:49;17.30;99.90
22337;DHT22;14992;50.844;4.418;2023-09-19T08:23:19;17.30;99.90
22337;DHT22;14992;50.844;4.418;2023-09-19T08:25:48;17.30;99.90
22337;DHT22;14992;50.844;4.418;2023-09-19T08:28:17;17.40;99.90
22337;DHT22;14992;50.844;4.418;2023-09-19T08:30:53;17.40;99.90
22337;DHT22;14992;50.844;4.418;2023-09-19T08:33:22;17.40;99.90
22337;DHT22;14992;50.844;4.418;2023-09-19T08:35:51;17.50;99.90
22337;DHT22;14992;50.844;4.418;2023-09-19T08:38:20;17.40;99.90
22337;DHT22;14992;50.844;4.418;2023-09-19T08:40:49;17.30;99.90
22337;DHT22;14992;50.844;4.418;2023-09-19T08:43:21;17.30;99.90
22337;DHT22;14992;50.844;4.418;2023-09-19T08:45:58;17.40;99.90
22337;DHT22;14992;50.844;4.418;2023-09-19T08:48:32;17.50;99.90
22337;DHT22;14992;50.844;4.418;2023-09-19T08:51:03;17.60;99.90
22337;DHT22;14992;50.844;4.418;2023-09-19T08:53:41;17.80;99.90
22337;DHT22;14992;50.844;4.418;2023-09-19T08:56:11;18.00;99.90
22337;DHT22;14992;50.844;4.418;2023-09-19T08:58:45;18.20;99.90
22337;DHT22;14992;50.844;4.418;2023-09-19T09:01:17;18.10;99.90
22337;DHT22;14992;50.844;4.418;2023-09-19T09:03:53;18.10;99.90
22337;DHT22;14992;50.844;4.418;2023-09-19T09:06:23;18.30;99.90
22337;DHT22;14992;50.844;4.418;2023-09-19T09:08:52;18.40;99.90
22337;DHT22;14992;50.844;4.418;2023-09-19T09:11:22;18.60;99.90
22337;DHT22;14992;50.844;4.418;2023-09-19T09:13:52;18.70;99.90
22337;DHT22;14992;50.844;4.418;2023-09-19T09:16:22;18.70;99.90
22337;DHT22;14992;50.844;4.418;2023-09-19T09:18:54;18.60;99.90
22337;DHT22;14992;50.844;4.418;2023-09-19T09:21:25;18.70;99.90
22337;DHT22;14992;50.844;4.418;2023-09-19T09:23:54;18.70;99.90
22337;DHT22;14992;50.844;4.418;2023-09-19T09:26:41;18.80;99.90
22337;DHT22;14992;50.844;4.418;2023-09-19T09:29:11;18.90;99.90
22337;DHT22;14992;50.844;4.418;2023-09-19T09:31:47;18.80;99.90
22337;DHT22;14992;50.844;4.418;2023-09-19T09:34:16;18.80;99.90
22337;DHT22;14992;50.844;4.418;2023-09-19T09:36:48;19.00;99.90
22337;DHT22;14992;50.844;4.418;2023-09-19T09:39:30;19.20;99.90
22337;DHT22;14992;50.844;4.418;2023-09-19T09:42:00;19.20;99.90
22337;DHT22;14992;50.844;4.418;2023-09-19T09:44:34;18.90;99.90
22337;DHT22;14992;50.844;4.418;2023-09-19T09:47:04;19.00;99.90
22337;DHT22;14992;50.844;4.418;2023-09-19T09:49:50;18.90;99.90
22337;DHT22;14992;50.844;4.418;2023-09-19T09:52:44;18.70;99.90
22337;DHT22;14992;50.844;4.418;2023-09-19T09:55:13;18.60;99.90
22337;DHT22;14992;50.844;4.418;2023-09-19T09:57:42;18.60;99.90
22337;DHT22;14992;50.844;4.418;2023-09-19T10:00:12;18.80;99.90
22337;DHT22;14992;50.844;4.418;2023-09-19T10:02:49;18.70;99.90
22337;DHT22;14992;50.844;4.418;2023-09-19T10:05:20;18.70;99.90
22337;DHT22;14992;50.844;4.418;2023-09-19T10:08:11;18.70;99.90
22337;DHT22;14992;50.844;4.418;2023-09-19T10:10:46;18.70;99.90
22337;DHT22;14992;50.844;4.418;2023-09-19T10:13:31;18.60;99.90
22337;DHT22;14992;50.844;4.418;2023-09-19T10:16:06;18.60;99.90
22337;DHT22;14992;50.844;4.418;2023-09-19T10:18:41;18.60;99.90
22337;DHT22;14992;50.844;4.418;2023-09-19T10:21:12;18.60;99.90
22337;DHT22;14992;50.844;4.418;2023-09-19T10:23:42;18.70;99.90
22337;DHT22;14992;50.844;4.418;2023-09-19T10:26:16;18.70;99.90
22337;DHT22;14992;50.844;4.418;2023-09-19T10:28:47;18.80;99.90
22337;DHT22;14992;50.844;4.418;2023-09-19T10:31:19;18.80;99.90
22337;DHT22;14992;50.844;4.418;2023-09-19T10:33:50;18.90;99.90
22337;DHT22;14992;50.844;4.418;2023-09-19T10:36:21;18.90;99.90
22337;DHT22;14992;50.844;4.418;2023-09-19T10:38:51;19.00;99.90
22337;DHT22;14992;50.844;4.418;2023-09-19T10:41:23;19.10;99.90
22337;DHT22;14992;50.844;4.418;2023-09-19T10:43:53;19.20;99.90
22337;DHT22;14992;50.844;4.418;2023-09-19T10:46:23;19.20;99.90
22337;DHT22;14992;50.844;4.418;2023-09-19T10:48:59;19.20;99.90
22337;DHT22;14992;50.844;4.418;2023-09-19T10:51:30;19.20;99.90
22337;DHT22;14992;50.844;4.418;2023-09-19T10:54:05;19.30;99.90
22337;DHT22;14992;50.844;4.418;2023-09-19T10:56:36;19.30;99.90
22337;DHT22;14992;50.844;4.418;2023-09-19T10:59:06;19.20;99.90
22337;DHT22;14992;50.844;4.418;2023-09-19T11:01:43;19.20;99.90
22337;DHT22;14992;50.844;4.418;2023-09-19T11:04:24;19.20;99.90
22337;DHT22;14992;50.844;4.418;2023-09-19T11:07:02;19.30;99.90
22337;DHT22;14992;50.844;4.418;2023-09-19T11:09:50;19.30;99.90
22337;DHT22;14992;50.844;4.418;2023-09-19T11:12:48;19.40;99.90
22337;DHT22;14992;50.844;4.418;2023-09-19T11:18:51;19.70;99.90
22337;DHT22;14992;50.844;4.418;2023-09-19T11:21:53;19.80;99.90
22337;DHT22;14992;50.844;4.418;2023-09-19T11:24:29;19.70;99.90
22337;DHT22;14992;50.844;4.418;2023-09-19T11:27:16;19.80;99.90
22337;DHT22;14992;50.844;4.418;2023-09-19T11:29:46;19.80;99.90
22337;DHT22;14992;50.844;4.418;2023-09-19T11:32:16;20.00;99.90
22337;DHT22;14992;50.844;4.418;2023-09-19T11:34:48;20.30;99.90
22337;DHT22;14992;50.844;4.418;2023-09-19T11:40:56;20.60;99.90
22337;DHT22;14992;50.844;4.418;2023-09-19T11:43:38;20.50;99.90
22337;DHT22;14992;50.844;4.418;2023-09-19T11:46:08;20.30;99.90
22337;DHT22;14992;50.844;4.418;2023-09-19T11:48:39;20.40;99.90
22337;DHT22;14992;50.844;4.418;2023-09-19T11:51:21;20.40;99.90
22337;DHT22;14992;50.844;4.418;2023-09-19T11:53:56;20.60;99.90
22337;DHT22;14992;50.844;4.418;2023-09-19T11:56:28;20.80;99.90
22337;DHT22;14992;50.844;4.418;2023-09-19T11:58:59;20.90;99.90
22337;DHT22;14992;50.844;4.418;2023-09-19T12:01:30;21.00;99.90
22337;DHT22;14992;50.844;4.418;2023-09-19T12:04:01;20.90;99.90
22337;DHT22;14992;50.844;4.418;2023-09-19T12:06:32;20.90;99.90
22337;DHT22;14992;50.844;4.418;2023-09-19T12:09:03;20.60;99.90
22337;DHT22;14992;50.844;4.418;2023-09-19T12:11:41;20.60;99.90
22337;DHT22;14992;50.844;4.418;2023-09-19T12:14:21;20.80;99.90
22337;DHT22;14992;50.844;4.418;2023-09-19T12:16:54;20.40;99.90
22337;DHT22;14992;50.844;4.418;2023-09-19T12:19:23;20.40;99.90
22337;DHT22;14992;50.844;4.418;2023-09-19T12:21:56;20.40;99.90
22337;DHT22;14992;50.844;4.418;2023-09-19T12:24:27;20.40;99.90
22337;DHT22;14992;50.844;4.418;2023-09-19T12:27:04;20.40;99.90
22337;DHT22;14992;50.844;4.418;2023-09-19T12:29:45;20.40;99.90
22337;DHT22;14992;50.844;4.418;2023-09-19T12:32:16;20.40;99.90
22337;DHT22;14992;50.844;4.418;2023-09-19T12:34:52;20.60;99.90
22337;DHT22;14992;50.844;4.418;2023-09-19T12:37:22;20.60;99.90
22337;DHT22;14992;50.844;4.418;2023-09-19T12:40:04;20.50;99.90
22337;DHT22;14992;50.844;4.418;2023-09-19T12:42:45;20.30;99.90
22337;DHT22;14992;50.844;4.418;2023-09-19T12:45:15;20.40;99.90
22337;DHT22;14992;50.844;4.418;2023-09-19T12:48:19;20.50;99.90
22337;DHT22;14992;50.844;4.418;2023-09-19T12:51:00;20.70;99.90
22337;DHT22;14992;50.844;4.418;2023-09-19T12:53:34;21.00;99.90
22337;DHT22;14992;50.844;4.418;2023-09-19T12:56:08;20.90;99.90
22337;DHT22;14992;50.844;4.418;2023-09-19T12:58:51;20.80;99.90
22337;DHT22;14992;50.844;4.418;2023-09-19T13:01:22;20.90;99.90
22337;DHT22;14992;50.844;4.418;2023-09-19T13:04:12;21.00;99.90
22337;DHT22;14992;50.844;4.418;2023-09-19T13:06:42;20.90;99.90
22337;DHT22;14992;50.844;4.418;2023-09-19T13:09:12;20.80;99.90
22337;DHT22;14992;50.844;4.418;2023-09-19T13:11:42;20.70;99.90
22337;DHT22;14992;50.844;4.418;2023-09-19T13:14:21;20.80;99.90
22337;DHT22;14992;50.844;4.418;2023-09-19T13:16:55;20.80;99.90
22337;DHT22;14992;50.844;4.418;2023-09-19T13:19:38;21.00;99.90
22337;DHT22;14992;50.844;4.418;2023-09-19T13:22:36;20.80;99.90
22337;DHT22;14992;50.844;4.418;2023-09-19T13:25:08;21.00;99.90
22337;DHT22;14992;50.844;4.418;2023-09-19T13:27:42;21.00;99.90
22337;DHT22;14992;50.844;4.418;2023-09-19T13:30:14;21.30;99.90
22337;DHT22;14992;50.844;4.418;2023-09-19T13:32:43;21.50;99.90
22337;DHT22;14992;50.844;4.418;2023-09-19T13:35:13;21.30;99.90
22337;DHT22;14992;50.844;4.418;2023-09-19T13:37:43;21.60;99.90
22337;DHT22;14992;50.844;4.418;2023-09-19T13:40:15;21.80;99.90
22337;DHT22;14992;50.844;4.418;2023-09-19T13:42:44;21.90;99.90
22337;DHT22;14992;50.844;4.418;2023-09-19T13:45:14;21.60;99.90
22337;DHT22;14992;50.844;4.418;2023-09-19T13:47:45;21.60;99.90
22337;DHT22;14992;50.844;4.418;2023-09-19T13:50:14;21.60;99.90
22337;DHT22;14992;50.844;4.418;2023-09-19T13:52:44;21.60;99.90
22337;DHT22;14992;50.844;4.418;2023-09-19T13:55:14;21.50;99.90
22337;DHT22;14992;50.844;4.418;2023-09-19T13:57:47;21.40;99.90
22337;DHT22;14992;50.844;4.418;2023-09-19T14:00:19;21.40;99.90
22337;DHT22;14992;50.844;4.418;2023-09-19T14:02:48;21.20;99.90
22337;DHT22;14992;50.844;4.418;2023-09-19T14:05:19;21.30;99.90
22337;DHT22;14992;50.844;4.418;2023-09-19T14:07:49;21.20;99.90
22337;DHT22;14992;50.844;4.418;2023-09-19T14:10:18;21.10;99.90
22337;DHT22;14992;50.844;4.418;2023-09-19T14:12:47;20.80;99.90
22337;DHT22;14992;50.844;4.418;2023-09-19T14:15:16;20.90;99.90
22337;DHT22;14992;50.844;4.418;2023-09-19T14:17:46;20.90;99.90
22337;DHT22;14992;50.844;4.418;2023-09-19T14:20:15;20.90;99.90
22337;DHT22;14992;50.844;4.418;2023-09-19T14:22:44;21.10;99.90
22337;DHT22;14992;50.844;4.418;2023-09-19T14:25:13;21.20;99.90
22337;DHT22;14992;50.844;4.418;2023-09-19T14:27:42;21.30;99.90
22337;DHT22;14992;50.844;4.418;2023-09-19T14:30:11;21.30;99.90
22337;DHT22;14992;50.844;4.418;2023-09-19T14:32:40;21.40;99.90
22337;DHT22;14992;50.844;4.418;2023-09-19T14:35:11;21.20;99.90
22337;DHT22;14992;50.844;4.418;2023-09-19T14:37:41;21.10;99.90
22337;DHT22;14992;50.844;4.418;2023-09-19T14:40:10;21.00;99.90
22337;DHT22;14992;50.844;4.418;2023-09-19T14:42:40;21.10;99.90
22337;DHT22;14992;50.844;4.418;2023-09-19T14:45:11;21.20;99.90
22337;DHT22;14992;50.844;4.418;2023-09-19T14:47:42;21.00;99.90
22337;DHT22;14992;50.844;4.418;2023-09-19T14:50:12;21.00;99.90
22337;DHT22;14992;50.844;4.418;2023-09-19T14:52:42;21.10;99.90
22337;DHT22;14992;50.844;4.418;2023-09-19T14:55:11;21.20;99.90
22337;DHT22;14992;50.844;4.418;2023-09-19T14:57:42;21.00;99.90
22337;DHT22;14992;50.844;4.418;2023-09-19T15:00:14;21.00;99.90
22337;DHT22;14992;50.844;4.418;2023-09-19T15:02:44;21.10;99.90
22337;DHT22;14992;50.844;4.418;2023-09-19T15:05:17;21.20;99.90
22337;DHT22;14992;50.844;4.418;2023-09-19T15:07:47;21.00;99.90
22337;DHT22;14992;50.844;4.418;2023-09-19T15:10:16;21.10;99.90
22337;DHT22;14992;50.844;4.418;2023-09-19T15:12:45;21.40;99.90
22337;DHT22;14992;50.844;4.418;2023-09-19T15:15:14;21.60;99.90
22337;DHT22;14992;50.844;4.418;2023-09-19T15:17:43;21.60;99.90
22337;DHT22;14992;50.844;4.418;2023-09-19T15:20:12;21.40;99.90
22337;DHT22;14992;50.844;4.418;2023-09-19T15:22:43;21.20;99.90
22337;DHT22;14992;50.844;4.418;2023-09-19T15:25:14;21.00;99.90
22337;DHT22;14992;50.844;4.418;2023-09-19T15:27:43;21.00;99.90
22337;DHT22;14992;50.844;4.418;2023-09-19T15:30:13;20.90;99.90
22337;DHT22;14992;50.844;4.418;2023-09-19T15:32:43;20.80;99.90
22337;DHT22;14992;50.844;4.418;2023-09-19T15:35:12;20.80;99.90
22337;DHT22;14992;50.844;4.418;2023-09-19T15:37:49;20.60;99.90
22337;DHT22;14992;50.844;4.418;2023-09-19T15:40:17;20.70;99.90
22337;DHT22;14992;50.844;4.418;2023-09-19T15:42:46;20.60;99.90
22337;DHT22;14992;50.844;4.418;2023-09-19T15:45:15;20.50;99.90
22337;DHT22;14992;50.844;4.418;2023-09-19T15:47:46;20.50;99.90
22337;DHT22;14992;50.844;4.418;2023-09-19T15:50:15;20.50;99.90
22337;DHT22;14992;50.844;4.418;2023-09-19T15:52:44;20.50;99.90
22337;DHT22;14992;50.844;4.418;2023-09-19T15:55:15;20.60;99.90
22337;DHT22;14992;50.844;4.418;2023-09-19T15:57:44;20.50;99.90
22337;DHT22;14992;50.844;4.418;2023-09-19T16:00:14;20.50;99.90
22337;DHT22;14992;50.844;4.418;2023-09-19T16:02:45;20.40;99.90
22337;DHT22;14992;50.844;4.418;2023-09-19T16:05:15;20.40;99.90
22337;DHT22;14992;50.844;4.418;2023-09-19T16:07:44;20.40;99.90
22337;DHT22;14992;50.844;4.418;2023-09-19T16:10:15;20.40;99.90
22337;DHT22;14992;50.844;4.418;2023-09-19T16:12:43;20.40;99.90